x

Newport, Or (nwpo3) Weather Station

12:00pm - Wed 23rd Aug 2017 All times are PDT. -7 hours from GMT.

  • Wind
    3mph, 5mph gusts
  • Air Temp 54°f
  • Sea Pressure 1018.1mb
  • Newport, Or
  • Newport, Or

More Historic Weather Station data

Upgrade to MSW Pro to gain access to the past 30 days of data for over 8000 Wavebouys and Weather Stations around the globe.

Join

Comparision Forecast

View Surf forecast
   
Wed 08/23 12:00pm 3 5 mph 1018.1mb 54f
11:00am 3 5 mph 1018.1mb 51f
10:00am 3 3 mph 1018.3mb 51f
9:00am 5 6 mph 1018.2mb 52f
8:00am 7 8 mph 1017.9mb 52f
7:00am 3 5 mph 1017.6mb 53f
6:00am 6 7 mph 1017.5mb 52f
5:00am 7 8 mph 1017.4mb 52f
4:00am 2 3 mph 1017.7mb 51f
3:00am 1 2 mph 1018.3mb 51f
2:00am  -  1 mph 1018.9mb 52f
1:00am 2 3 mph 1019.1mb 55f
12:00am  -  1 mph 1018.9mb 56f
Tue 08/22 11:00pm 1 2 mph 1019.1mb 56f
10:00pm 1 1 mph 1019.2mb 56f
9:00pm  -  1 mph 1019.2mb 56f
8:00pm  -  1 mph 1018.9mb 55f
7:00pm 2 3 mph 1018.6mb 56f
6:00pm 3 5 mph 1018.5mb 58f
5:00pm 5 5 mph 1018.9mb 58f
4:00pm 3 6 mph 1019.2mb 58f
3:00pm 3 6 mph 1019.6mb 57f
2:00pm 2 2 mph 1019.8mb 55f
1:00pm 3 5 mph 1019.6mb 54f
12:00pm 3 5 mph 1019.7mb 52f
11:00am 6 7 mph 1019.4mb 53f
10:00am 6 8 mph 1019.1mb 53f
9:00am 9 10 mph 1018.8mb 53f
8:00am 9 10 mph 1018.6mb 53f
7:00am 7 8 mph 1018.2mb 52f
6:00am 5 6 mph 1017.9mb 52f
5:00am 7 8 mph 1017.5mb 52f
4:00am 9 10 mph 1017.7mb 51f
3:00am 11 13 mph 1017.6mb 51f
2:00am 10 10 mph 1017.4mb 51f
1:00am 7 8 mph 1017.2mb 51f
12:00am 7 7 mph 1016.5mb 51f
Mon 08/21 11:00pm 13 14 mph 1016.1mb 52f
10:00pm 13 14 mph 1016mb 52f
9:00pm 11 13 mph 1015.7mb 51f
8:00pm 13 14 mph 1015.5mb 52f
7:00pm 18 21 mph 1015.2mb 53f
6:00pm 8 11 mph 1015.5mb 53f
5:00pm 20 21 mph 1015.5mb 52f
4:00pm 15 17 mph 1015.9mb 51f
3:00pm 17 20 mph 1016.4mb 51f
2:00pm 17 18 mph 1016.8mb 51f
1:00pm 20 22 mph 1017.2mb 51f
12:00pm 15 17 mph 1017.6mb 49f
11:00am 9 11 mph 1017.7mb 49f
10:00am 11 14 mph 1017.8mb 49f
9:00am 9 10 mph 1018.2mb 50f
8:00am 3 5 mph 1018.4mb 52f
7:00am 5 6 mph 1018.3mb 53f
6:00am 1 1 mph 1018.1mb 52f
5:00am 9 10 mph 1018.1mb 51f
4:00am 5 5 mph 1018.4mb 52f
3:00am 9 11 mph 1018.5mb 52f
2:00am 13 15 mph 1018.6mb 50f
1:00am 8 9 mph 1018.7mb 52f
12:00am 15 16 mph 1018.7mb 51f
Sun 08/20 11:00pm 16 17 mph 1018.9mb 53f
10:00pm 18 20 mph 1018.8mb 53f
9:00pm 23 26 mph 1018.6mb 53f
8:00pm 26 31 mph 1018.2mb 54f
7:00pm 32 37 mph 1018mb 56f
6:00pm 25 28 mph 1018.5mb 55f
5:00pm 25 29 mph 1018.9mb 55f
4:00pm 26 29 mph 1019.2mb 54f
3:00pm 25 29 mph 1019.5mb 54f
2:00pm 23 26 mph 1019.8mb 53f
1:00pm 21 23 mph 1020.2mb 53f
12:00pm 23 26 mph 1020.5mb 53f
11:00am 18 20 mph 1021mb 52f
10:00am 11 14 mph 1021.1mb 52f
9:00am 2 2 mph 1021.3mb 52f
8:00am 3 3 mph 1021.1mb 51f
7:00am 2 3 mph 1020.9mb 50f
6:00am 5 6 mph 1020.6mb 50f
5:00am 3 5 mph 1020.6mb 51f
4:00am 3 3 mph 1020.6mb 51f
3:00am 2 3 mph 1020.8mb 51f
2:00am 3 3 mph 1021mb 52f
1:00am 5 6 mph 1021mb 54f
12:00am 17 20 mph 1021.4mb 53f
Sat 08/19 11:00pm 15 18 mph 1021.3mb 55f
10:00pm 20 26 mph 1021.2mb 56f
9:00pm 25 30 mph 1020.7mb 55f